Tiempo atmosférico en la estación meteorológica de Pola de Somiedo, Asturias (668 m.)



Fecha
DESCASC
Temp. máxima en grados centígrados (hora)
DESCASC
Temp. mínima en grados centígrados (hora)
DESCASC
Temp. media en grados centígrados
DESCASC
Racha de viento máxima en m/sg (hora)
DESCASC
Velocidad máxima media en intervalos de 10 minutos(hora)
DESCASC
Precipitaciones diarias en mm
DESCASC
Precipitaciones de 00:00 a 06:00 en mm
DESCASC
Precipitaciones de 06:00 a 12:00 en mm
DESCASC
Precipitaciones de 12:00 a 18:00 en mm
DESCASC
Precipitaciones de 18:00 a 24:00 en mm
DESCASC
13-01-2021 7.5 (14:20) -6.2 (06:30) 0.7 1.94 (23:20) 0.83 (00:10) 0 0 0 0 0
12-01-2021 7.7 (14:20) -7 (08:00) 0.3 1.67 (20:50) 1.11 (15:00) 0 0 0 0 0
11-01-2021 5.6 (14:10) -4.7 (23:59) 0.5 3.06 (14:20) 1.67 (14:20) 0 0 0 0 0
10-01-2021 3.2 (15:00) -0.1 (21:20) 1.6 9.44 (10:10) 3.61 (07:30) 1.8 1.4 0.2 0.2 0
09-01-2021 1.1 (17:10) -7.1 (-00:0) -3 9.44 (16:00) 4.44 (14:40) 6.4 0 0.4 1.8 4.2
08-01-2021 4.4 (14:40) -8.2 (-00:0) -1.9 3.61 (15:00) 1.11 (11:30) 0 0 0 0 0
07-01-2021 4.4 (14:10) -7.6 (-00:0) -1.6 2.78 (15:20) 1.94 (15:20) 0 0 0 0 0
06-01-2021 4.5 (14:00) -5.9 (-00:0) -0.7 2.5 (15:40) 1.67 (15:30) 0 0 0 0 0
05-01-2021 4.3 (14:00) -2.6 (-00:0) 0.9 2.78 (14:20) 1.39 (14:20) 0.8 0 0 0.8 0
04-01-2021 3.4 (14:10) -0.8 (-00:0) 1.3 3.33 (15:00) 1.39 (15:00) 22 4.8 6.6 10 0.6
03-01-2021 2.9 (13:00) 0.1 (00:00) 1.5 5.28 (17:40) 2.22 (17:40) 9.6 0.6 2 2.4 4.6
02-01-2021 2.3 (14:00) -0.8 (-00:0) 0.7 5 (02:40) 1.94 (02:40) 7.4 0.2 6 0.4 0.8
01-01-2021 2.7 (14:00) -0.1 (00:00) 1.3 9.17 (15:20) 3.89 (15:20) 19.2 6 5.8 2.8 4.6
31-12-2020 7.8 (11:00) 0.5 (00:00) 4.2 12.22 (10:00) 4.72 (11:10) 14 0 2 6.2 5.8
30-12-2020 6.8 (22:10) 0.1 (00:00) 3.5 8.06 (22:40) 3.33 (09:30) 0.6 0.6 0 0 0
29-12-2020 4.7 (00:00) 0.1 (00:00) 2.4 7.5 (08:10) 2.5 (04:40) 19.2 4.4 3 5.2 6.6
28-12-2020 6.6 (00:00) 1.7 (00:00) 4.1 16.67 (03:30) 6.94 (06:30) 24.6 10.6 4.6 5 4.4
27-12-2020 12.9 (14:30) -1.5 (-00:0) 5.7 18.33 (20:20) 8.06 (23:40) 8.2 0 0 0 8.2
26-12-2020 6.5 (14:00) -2.2 (-00:0) 2.1 3.06 (15:30) 1.67 (15:00) 0 0 0 0 0
25-12-2020 4.9 (13:20) -1 (-00:0) 2 6.11 (15:30) 3.33 (15:30) 2.6 1.6 0.6 0.2 0.2
24-12-2020 5.9 (14:10) 1.7 (00:00) 3.8 4.17 (19:00) 1.94 (18:10) 5.6 0 0 0.6 5
23-12-2020 15.3 (00:00) 2.6 (00:00) 9 13.89 (02:10) 5.83 (00:20) 3 0 0.2 2 0.8
22-12-2020 18 (14:50) 14.1 (00:00) 16.1 15 (20:00) 6.94 (20:50) 0 0 0 0 0
21-12-2020 19.3 (14:10) 11.5 (00:00) 15.4 11.67 (22:00) 5.28 (22:30) 0 0 0 0 0
20-12-2020 12.6 (23:59) 1.8 (00:00) 7.2 11.67 (19:00) 4.17 (19:10) 2 0 0 0.4 1.6
19-12-2020 12.1 (14:50) 2.9 (00:00) 7.5 16.39 (00:10) 7.5 (00:10) 1.2 0.8 0.4 0 0
18-12-2020 14.3 (14:10) 7.2 (00:00) 10.8 16.39 (23:10) 7.22 (22:10) 6.4 0 0 0 6.4

Gráficas

Temp. máximas Temp. mínimas Temp. medias Precipitaciones Rachas de viento máximas Velocidades máximas media en intervalos de 10 minutos

Datos horarios

Fecha y hora oficial Temperatura (ºC) Velocidad del viento (km/h) Dirección del viento Racha (km/h) Dirección de racha Precipitación (mm) Presión (hPa) Tendencia (hPa) Humedad (%)
2021-01-16 23:00:00 -1.3 3 Sur 6 Sur 0 -- -- 92
2021-01-16 22:00:00 -1.1 0 Calma 7 Sur 0 -- -- 91
2021-01-16 21:00:00 -1.1 3 Sur 6 Sur 0 -- -- 92
2021-01-16 20:00:00 -0.7 2 Sur 5 Sur 0 -- -- 91
2021-01-16 19:00:00 0.1 3 Sur 5 Sur 0 -- -- 89
2021-01-16 18:00:00 1.2 4 Sur 6 Sur 0 -- -- 87
2021-01-16 17:00:00 2.6 0 Calma 6 Sur 0 -- -- 83
2021-01-16 16:00:00 4.9 2 Oeste 7 Oeste 0 -- -- 71
2021-01-16 15:00:00 8.9 3 Sudoeste 7 Oeste 0 -- -- 58
2021-01-16 14:00:00 9.5 0 Calma 4 Sur 0 -- -- 57
2021-01-16 13:00:00 7.5 0 Calma 4 Sur 0 -- -- 64
2021-01-16 12:00:00 3.8 2 Sur 6 Sur 0 -- -- 78
2021-01-16 11:00:00 -2 2 Sur 4 Sur 0 -- -- 100
2021-01-16 10:00:00 -3.1 0 Calma 5 Sur 0 -- -- 99
2021-01-16 09:00:00 -3.1 0 Calma 6 Sur 0 -- -- 98
2021-01-16 08:00:00 -2.8 4 Sur 8 Sur 0 -- -- 99
2021-01-16 07:00:00 -3.3 0 Calma -- -- 0 -- -- 100
2021-01-16 06:00:00 -3.4 0 Calma -- -- 0 -- -- 99
2021-01-16 05:00:00 -3.2 0 Calma -- -- 0 -- -- 99
2021-01-16 04:00:00 -2.9 0 Calma -- -- 0 -- -- 98
2021-01-16 03:00:00 -2.8 0 Calma -- -- 0 -- -- 98
2021-01-16 02:00:00 -2.9 0 Calma -- -- 0 -- -- 98
2021-01-16 01:00:00 -3.2 0 Calma -- -- 0 -- -- 97
2021-01-16 00:00:00 -3.1 0 Calma -- -- 0 -- -- 96
2021-01-15 23:00:00 -2.8 0 Calma -- -- 0 -- -- 95
2021-01-15 22:00:00 -2.5 0 Calma -- -- 0 -- -- 95
2021-01-15 21:00:00 -2.1 0 Calma 0 Calma 0 -- -- 94
2021-01-15 20:00:00 -1.6 0 Calma -- -- 0 -- -- 93
2021-01-15 19:00:00 -0.7 0 Calma -- -- 0 -- -- 92
2021-01-15 18:00:00 0.6 0 Calma 4 Sudoeste 0 -- -- 87
2021-01-15 17:00:00 2 0 Calma 4 Oeste 0 -- -- 82
2021-01-15 16:00:00 3.7 3 Noroeste 6 Oeste 0 -- -- 72
2021-01-15 15:00:00 7.4 4 Oeste 6 Sudoeste 0 -- -- 61
2021-01-15 14:00:00 7.3 2 Sur 5 Sur 0 -- -- 53
2021-01-15 13:00:00 4.1 3 Norte 4 Norte 0 -- -- 75
2021-01-15 12:00:00 2.1 0 Calma 7 Sudeste 0 -- -- 96
2021-01-15 11:00:00 -2.4 0 Calma 4 Sudoeste 0 -- -- 100
2021-01-15 10:00:00 -2.8 0 Calma 5 Sur 0 -- -- 100
2021-01-15 09:00:00 -2.6 3 Sur 5 Sur 0 -- -- 100
2021-01-15 08:00:00 -2.1 0 Calma 4 Sur 0 -- -- 100
2021-01-15 07:00:00 -1.6 0 Calma 7 Sur 0 -- -- 100
2021-01-15 06:00:00 -1.3 0 Calma 6 Sur 0 -- -- 100
2021-01-15 05:00:00 -0.6 0 Calma 5 Sudoeste 0 -- -- 100
2021-01-15 04:00:00 0.4 0 Calma 4 Sur 0 -- -- 100
2021-01-15 03:00:00 0.1 2 Sur 5 Sur 0 -- -- 100
2021-01-15 02:00:00 0.2 0 Calma -- -- 0 -- -- 100
2021-01-15 01:00:00 0.6 0 Calma -- -- 0 -- -- 100
2021-01-15 00:00:00 0.6 0 Calma -- -- 0 -- -- 100
2021-01-14 23:00:00 1.1 0 Calma 5 Sudoeste 0 -- -- 100
2021-01-14 22:00:00 1.4 0 Calma 5 Sudeste 0 -- -- 100
2021-01-14 21:00:00 1.5 0 Calma 3 Sudoeste 0.2 -- -- 100
2021-01-14 20:00:00 1.7 2 Sur 5 Sur 0 -- -- 100
2021-01-14 19:00:00 2 0 Calma 5 Sudoeste 0 -- -- 98
2021-01-14 18:00:00 2.8 3 Sur 6 Sudoeste 0 -- -- 96
2021-01-14 17:00:00 3.8 0 Calma -- -- 0 -- -- 89
2021-01-14 16:00:00 3.9 0 Calma 3 Sudoeste 0 -- -- 85
2021-01-14 15:00:00 3.8 0 Calma 0 Calma 0 -- -- 84
2021-01-14 14:00:00 3.7 0 Calma 4 Sudoeste 0 -- -- 83
2021-01-14 13:00:00 3.3 0 Calma 6 Sur 0 -- -- 80
2021-01-14 12:00:00 2.2 0 Calma 5 Sur 0 -- -- 87
2021-01-14 11:00:00 -2.8 4 Sur 7 Sur 0 -- -- 100
2021-01-14 10:00:00 -4.9 2 Sur 6 Sur 0 -- -- 99
2021-01-14 09:00:00 -5.3 3 Sur 7 Sur 0 -- -- 99
2021-01-14 08:00:00 -4.8 0 Calma 7 Sur 0 -- -- 99
2021-01-14 07:00:00 -5 2 Sur 8 Sudoeste 0 -- -- 100
2021-01-14 06:00:00 -5.3 3 Sur 5 Sur 0 -- -- 100
2021-01-14 05:00:00 -5.2 3 Sur 6 Sur 0 -- -- 98
2021-01-14 04:00:00 -4.4 0 Calma 6 Sur 0 -- -- 99
2021-01-14 03:00:00 -4.5 4 Sur 5 Sudeste 0 -- -- 100
2021-01-14 02:00:00 -4.3 3 Sur 6 Sudoeste 0 -- -- 99
2021-01-14 01:00:00 -4.1 0 Calma 6 Sur 0 -- -- 99
2021-01-14 00:00:00 -3.9 2 Sur 7 Sur 0 -- -- 99
2021-01-13 23:00:00 -4 0 Calma -- -- 0 -- -- 99
2021-01-13 22:00:00 -3.4 0 Calma -- -- 0 -- -- 97
2021-01-13 21:00:00 -3 0 Calma -- -- 0 -- -- 98
2021-01-13 20:00:00 -2.4 0 Calma -- -- 0 -- -- 96
2021-01-13 19:00:00 -1.6 0 Calma 4 Sur 0 -- -- 95
2021-01-13 18:00:00 -0.5 3 Sur 5 Sur 0 -- -- 92
2021-01-13 17:00:00 1.1 2 Sur 3 Sudoeste 0 -- -- 87
2021-01-13 16:00:00 3 2 Sudoeste 5 Oeste 0 -- -- 79
2021-01-13 15:00:00 7 0 Calma -- -- 0 -- -- 63
2021-01-13 14:00:00 7.1 0 Calma -- -- 0 -- -- 65
2021-01-13 13:00:00 4.7 0 Calma -- -- 0 -- -- 73
2021-01-13 12:00:00 -0.2 0 Calma -- -- 0 -- -- 100
2021-01-13 11:00:00 -5.2 0 Calma -- -- 0 -- -- 100
2021-01-13 10:00:00 -5.5 0 Calma 3 Sur 0 -- -- 100
2021-01-13 09:00:00 -5.8 3 Sur 5 Sudoeste 0 -- -- 100
2021-01-13 08:00:00 -6 0 Calma -- -- 0 -- -- 100
2021-01-13 07:00:00 -6.1 0 Calma -- -- 0 -- -- 100
2021-01-13 06:00:00 -6 0 Calma -- -- 0 -- -- 100
2021-01-13 05:00:00 -5.8 0 Calma -- -- 0 -- -- 100
2021-01-13 04:00:00 -5.5 0 Calma -- -- 0 -- -- 100
2021-01-13 03:00:00 -5.1 0 Calma -- -- 0 -- -- 99
2021-01-13 02:00:00 -4.7 0 Calma -- -- 0 -- -- 99
2021-01-13 01:00:00 -4.4 0 Calma 5 Sur 0 -- -- 98
2021-01-13 00:00:00 -4 3 Sur 5 Sur 0 -- -- 99
2021-01-12 23:00:00 -3.9 3 Sur 5 Sudoeste 0 -- -- 99
2021-01-12 22:00:00 -3.6 0 Calma 4 Sur 0 -- -- 98
2021-01-12 21:00:00 -3 2 Sur 6 Sudeste 0 -- -- 98
2021-01-12 20:00:00 -2.3 0 Calma 4 Sur 0 -- -- 97
2021-01-12 19:00:00 -1.5 0 Calma 5 Sur 0 -- -- 95
2021-01-12 18:00:00 -0.4 0 Calma 5 Sur 0 -- -- 92
2021-01-12 17:00:00 1 0 Calma 4 Sur 0 -- -- 86
2021-01-12 16:00:00 3 2 Sudoeste 5 Sudoeste 0 -- -- 77
2021-01-12 15:00:00 7.2 4 Sudoeste 6 Sudoeste 0 -- -- 62
2021-01-12 14:00:00 7.3 0 Calma -- -- 0 -- -- 63
2021-01-12 13:00:00 4.3 0 Calma -- -- 0 -- -- 72
2021-01-12 12:00:00 0.2 0 Calma 4 Sudeste 0 -- -- 100
2021-01-12 11:00:00 -4.5 0 Calma 5 Sudoeste 0 -- -- 100
2021-01-12 10:00:00 -5.8 3 Sur 5 Sur 0 -- -- 100
2021-01-12 09:00:00 -6.6 0 Calma 4 Sur 0 -- -- 100
2021-01-12 08:00:00 -7 3 Sur 5 Sur 0 -- -- 100
2021-01-12 07:00:00 -6.6 0 Calma -- -- 0 -- -- 100
2021-01-12 06:00:00 -6.5 0 Calma -- -- 0 -- -- 100
2021-01-12 05:00:00 -6.4 0 Calma -- -- 0 -- -- 99
2021-01-12 04:00:00 -6 0 Calma -- -- 0 -- -- 99
2021-01-12 03:00:00 -5.7 0 Calma -- -- 0 -- -- 99
2021-01-12 02:00:00 -5.2 0 Calma -- -- 0 -- -- 99
2021-01-12 01:00:00 -5 0 Calma 2 Sur 0 -- -- 98
2021-01-12 00:00:00 -4.7 3 Sur 5 Sur 0 -- -- 97
2021-01-11 23:00:00 -4.1 0 Calma 5 Sudoeste 0 -- -- 96
2021-01-11 22:00:00 -3.6 3 Sur 4 Sudoeste 0 -- -- 96
2021-01-11 21:00:00 -3.2 0 Calma 5 Sur 0 -- -- 95
2021-01-11 20:00:00 -2.6 0 Calma 4 Sur 0 -- -- 94
2021-01-11 19:00:00 -1.9 0 Calma 4 Sudoeste 0 -- -- 91
2021-01-11 18:00:00 -0.8 0 Calma 4 Sur 0 -- -- 88
2021-01-11 17:00:00 0.9 0 Calma 9 Sur 0 -- -- 84
2021-01-11 16:00:00 2.1 3 Sur 9 Oeste 0 -- -- 78
2021-01-11 15:00:00 5.3 6 Oeste 11 Norte 0 -- -- 67
2021-01-11 14:00:00 5.5 5 Norte 10 Noroeste 0 -- -- 65
2021-01-11 13:00:00 4.3 3 Norte 9 Noroeste 0 -- -- 70
2021-01-11 12:00:00 2.5 4 Norte 7 Norte 0 -- -- 82
2021-01-11 11:00:00 1.4 0 Calma 5 Sudeste 0 -- -- 91
2021-01-11 10:00:00 0.4 3 Sur 6 Sur 0 -- -- 95
2021-01-11 09:00:00 -0.1 0 Calma 5 Sudoeste 0 -- -- 96
2021-01-11 08:00:00 -0.1 0 Calma 4 Sudoeste 0 -- -- 95
2021-01-11 07:00:00 0 2 Sur 5 Sudoeste 0 -- -- 94
2021-01-11 06:00:00 0 0 Calma 5 Sudoeste 0 -- -- 93
2021-01-11 05:00:00 -0.1 2 Oeste 6 Noroeste 0 -- -- 92
2021-01-11 04:00:00 -0.3 2 Noroeste 7 Sudoeste 0 -- -- 94
2021-01-11 03:00:00 0.4 3 Nordeste 8 Noroeste 0 -- -- 92
2021-01-11 02:00:00 0.3 0 Calma 8 Sudoeste 0 -- -- 91
2021-01-11 01:00:00 0.5 0 Calma 8 Sur 0 -- -- 88
2021-01-11 00:00:00 0.8 3 Norte 17 Nordeste 0 -- -- 83
2021-01-10 23:00:00 -0.1 2 Sudeste 6 Sudeste 0 -- -- 91
2021-01-10 22:00:00 -0.1 3 Sudeste 8 Sur 0 -- -- 91
2021-01-10 21:00:00 0 3 Sur 8 Sudoeste 0 -- -- 91
2021-01-10 20:00:00 0.4 2 Sudeste 6 Sudoeste 0 -- -- 89
2021-01-10 19:00:00 1 3 Noroeste 17 Norte 0 -- -- 85
2021-01-10 18:00:00 1.7 0 Calma 6 Nordeste 0.2 -- -- 83
2021-01-10 17:00:00 2.4 4 Norte 10 Norte 0 -- -- 72
2021-01-10 16:00:00 2.6 5 Norte 15 Noroeste 0 -- -- 77
2021-01-10 15:00:00 3.2 4 Nordeste 15 Norte 0 -- -- 70
2021-01-10 14:00:00 2.7 4 Norte 16 Norte 0 -- -- 74
2021-01-10 13:00:00 2.4 5 Norte 20 Norte 0 -- -- 80
2021-01-10 12:00:00 2.8 3 Oeste 30 Nordeste 0 -- -- 69
2021-01-10 11:00:00 2.5 8 Noroeste 34 Norte 0 -- -- 70
2021-01-10 10:00:00 2.3 10 Norte 24 Oeste 0 -- -- 78
2021-01-10 09:00:00 2.1 9 Noroeste 24 Noroeste 0 -- -- 79
2021-01-10 08:00:00 1.9 9 Norte 30 Nordeste 0.2 -- -- 81
2021-01-10 07:00:00 1.5 5 Noroeste 18 Noroeste 0 -- -- 88
2021-01-10 06:00:00 1.5 4 Norte 24 Norte 0 -- -- 87
2021-01-10 05:00:00 1.5 10 Norte 31 Norte 0.4 -- -- 91
2021-01-10 04:00:00 0.3 3 Sudoeste 8 Sur 0.2 -- -- 100
2021-01-10 03:00:00 0.2 3 Oeste 6 Nordeste 0.4 -- -- 100
2021-01-10 02:00:00 0.2 3 Sudeste 5 Sudoeste 0.4 -- -- 100
2021-01-10 01:00:00 0.2 3 Norte 10 Norte 0 -- -- 100
2021-01-10 00:00:00 0.1 3 Norte 6 Noroeste 0.8 -- -- 100
2021-01-09 23:00:00 0.2 2 Sur 8 Sur 0.6 -- -- 99
2021-01-09 22:00:00 0.5 0 Calma 20 Norte 0.4 -- -- 95
2021-01-09 21:00:00 0.5 6 Noroeste 18 Noroeste 0.6 -- -- 95
2021-01-09 20:00:00 0.4 3 Noroeste 11 Noroeste 1 -- -- 95
2021-01-09 19:00:00 0.5 6 Norte 28 Noroeste 0.8 -- -- 94
2021-01-09 18:00:00 0.6 8 Noroeste 29 Noroeste 0.4 -- -- 92
2021-01-09 17:00:00 1 12 Noroeste 26 Norte 0.2 -- -- 86
2021-01-09 16:00:00 0.9 14 Noroeste 34 Noroeste 0.2 -- -- 80
2021-01-09 15:00:00 0.7 10 Norte 32 Norte 0.4 -- -- 88
2021-01-09 14:00:00 0.9 12 Norte 33 Norte 0.4 -- -- 84
2021-01-09 13:00:00 0.6 6 Noroeste 27 Noroeste 0.2 -- -- 92
2021-01-09 12:00:00 0.1 5 Sur 13 Sudoeste 0.2 -- -- 94
2021-01-09 11:00:00 0 6 Sudeste 21 Norte 0.2 -- -- 93
2021-01-09 10:00:00 -0.6 6 Sudeste 22 Noroeste 0 -- -- 90
2021-01-09 09:00:00 -1.9 3 Norte 6 Nordeste 0 -- -- 92
2021-01-09 08:00:00 -2.1 3 Noroeste 11 Noroeste 0 -- -- 90
2021-01-09 07:00:00 -2.7 4 Sur 8 Noroeste 0 -- -- 94
2021-01-09 06:00:00 -3.5 4 Noroeste 10 Oeste 0 -- -- 94
2021-01-09 05:00:00 -3.9 2 Noroeste 10 Este 0 -- -- 94
2021-01-09 04:00:00 -4.6 5 Noroeste 9 Oeste 0 -- -- 95
2021-01-09 03:00:00 -5.6 3 Sudoeste 13 Sudeste 0 -- -- 96
2021-01-09 02:00:00 -6.2 4 Sudoeste 10 Oeste 0 -- -- 97
2021-01-09 01:00:00 -7.1 3 Sur 10 Oeste 0 -- -- 97
2021-01-09 00:00:00 -6.9 2 Sur 6 Sur 0 -- -- 97
2021-01-08 23:00:00 -6.7 0 Calma 6 Sudoeste 0 -- -- 97
2021-01-08 22:00:00 -6.1 0 Calma 4 Sur 0 -- -- 96
2021-01-08 21:00:00 -5.3 0 Calma 5 Oeste 0 -- -- 93
2021-01-08 20:00:00 -4.5 0 Calma 6 Oeste 0 -- -- 92
2021-01-08 19:00:00 -3.7 2 Sur 4 Este 0 -- -- 90
2021-01-08 18:00:00 -2.6 2 Sur 6 Sur 0 -- -- 86
2021-01-08 17:00:00 -1.3 3 Sur 8 Sur 0 -- -- 83
2021-01-08 16:00:00 0.8 2 Sur 10 Norte 0 -- -- 70
2021-01-08 15:00:00 4.2 4 Oeste 13 Noroeste 0 -- -- 58
2021-01-08 14:00:00 3.9 0 Calma 6 Nordeste 0 -- -- 62
2021-01-08 13:00:00 1.1 2 Sudeste 5 Oeste 0 -- -- 73
2021-01-08 12:00:00 -3.1 3 Sudeste 10 Este 0 -- -- 96
2021-01-08 11:00:00 -6.8 3 Nordeste 8 Sudoeste 0 -- -- 99
2021-01-08 10:00:00 -7.5 3 Sur 6 Sudeste 0 -- -- 98
2021-01-08 09:00:00 -8.2 3 Norte 8 Sudeste 0 -- -- 98
2021-01-08 08:00:00 -8 3 Sur 7 Sur 0 -- -- 98
2021-01-08 07:00:00 -8.2 3 Norte 5 Sudeste 0 -- -- 98
2021-01-08 06:00:00 -8 2 Sur 5 Sur 0 -- -- 98
2021-01-08 05:00:00 -8 0 Calma 7 Sur 0 -- -- 98
2021-01-08 04:00:00 -7.9 2 Sudoeste 5 Sur 0 -- -- 99
2021-01-08 03:00:00 -7.8 0 Calma 5 Sudoeste 0 -- -- 98
2021-01-08 02:00:00 -7.7 0 Calma 5 Oeste 0 -- -- 98
2021-01-08 01:00:00 -7.2 0 Calma 5 Sudoeste 0 -- -- 97
2021-01-08 00:00:00 -6.8 0 Calma 5 Este 0 -- -- 97
2021-01-07 23:00:00 -6.6 3 Sur 5 Sudoeste 0 -- -- 97
2021-01-07 22:00:00 -6.1 3 Sur 5 Sur 0 -- -- 95
2021-01-07 21:00:00 -5.5 0 Calma 5 Sudoeste 0 -- -- 93
2021-01-07 20:00:00 -4.8 0 Calma 5 Sudoeste 0 -- -- 90
2021-01-07 19:00:00 -4 0 Calma 5 Sudoeste 0 -- -- 89
2021-01-07 18:00:00 -3 2 Sudoeste 7 Sur 0 -- -- 85
2021-01-07 17:00:00 -1.8 0 Calma 6 Sudoeste 0 -- -- 83
2021-01-07 16:00:00 -0.4 4 Sudoeste 10 Oeste 0 -- -- 76
2021-01-07 15:00:00 2.8 6 Sudoeste 9 Sudoeste 0 -- -- 67
2021-01-07 14:00:00 4.2 2 Sur 5 Sudoeste 0 -- -- 58
2021-01-07 13:00:00 1.3 3 Sur 5 Sur 0 -- -- 71
2021-01-07 12:00:00 -1.9 2 Sur 5 Sur 0 -- -- 88
2021-01-07 11:00:00 -6.5 0 Calma 4 Sudeste 0 -- -- 99
2021-01-07 10:00:00 -7.5 3 Sur 5 Sur 0 -- -- 98
2021-01-07 09:00:00 -7.6 3 Sur 6 Sur 0 -- -- 99
2021-01-07 08:00:00 -7.6 3 Sur 6 Sur 0 -- -- 98
2021-01-07 07:00:00 -7.4 0 Calma 3 Sudoeste 0 -- -- 99
2021-01-07 06:00:00 -7.2 2 Sur 5 Sur 0 -- -- 99
2021-01-07 05:00:00 -7 3 Sur 5 Sur 0 -- -- 99
2021-01-07 04:00:00 -6.7 0 Calma 6 Sur 0 -- -- 100
2021-01-07 03:00:00 -6.7 0 Calma -- -- 0 -- -- 99
2021-01-07 02:00:00 -6.6 0 Calma 4 Sur 0 -- -- 98
2021-01-07 01:00:00 -6.4 0 Calma 3 Sur 0 -- -- 98
2021-01-07 00:00:00 -5.9 0 Calma 6 Sur 0 -- -- 98
2021-01-06 23:00:00 -5.4 0 Calma 4 Sudoeste 0 -- -- 98
2021-01-06 22:00:00 -4.9 0 Calma 5 Sur 0 -- -- 97
2021-01-06 21:00:00 -4.4 3 Sur 4 Sur 0 -- -- 95
2021-01-06 20:00:00 -3.6 0 Calma 5 Sudoeste 0 -- -- 94
2021-01-06 19:00:00 -2.8 0 Calma 5 Sudoeste 0 -- -- 92
2021-01-06 18:00:00 -1.7 2 Sudoeste 5 Sudoeste 0 -- -- 90
2021-01-06 17:00:00 -0.5 0 Calma 9 Sudoeste 0 -- -- 86
2021-01-06 16:00:00 0.5 4 Sudoeste 9 Sudoeste 0 -- -- 83
2021-01-06 15:00:00 3.3 3 Oeste 7 Oeste 0 -- -- 74
2021-01-06 14:00:00 4.5 0 Calma 6 Oeste 0 -- -- 63
2021-01-06 13:00:00 2.7 0 Calma -- -- 0 -- -- 72
2021-01-06 12:00:00 0.2 0 Calma -- -- 0 -- -- 86
2021-01-06 11:00:00 -3.8 0 Calma -- -- 0 -- -- 100
2021-01-06 10:00:00 -4.1 0 Calma 5 Sudoeste 0 -- -- 99
2021-01-06 09:00:00 -3.4 0 Calma 4 Sur 0 -- -- 99
2021-01-06 08:00:00 -3.2 0 Calma 4 Sudoeste 0 -- -- 99
2021-01-06 07:00:00 -2.6 0 Calma 3 Sudoeste 0 -- -- 99
2021-01-06 06:00:00 -2.3 2 Sur 6 Sudoeste 0 -- -- 96
2021-01-06 05:00:00 -1.9 0 Calma 6 Sudoeste 0 -- -- 98
2021-01-06 04:00:00 -0.7 0 Calma 0 Calma 0 -- -- 100
2021-01-06 03:00:00 -0.5 0 Calma 2 Oeste 0 -- -- 100
2021-01-06 02:00:00 -0.5 0 Calma 3 Sudoeste 0 -- -- 100
2021-01-06 01:00:00 0.3 0 Calma 3 Sudoeste 0 -- -- 100
2021-01-06 00:00:00 0.5 0 Calma 6 Sudoeste 0 -- -- 100
2021-01-05 23:00:00 0.6 4 Sur 9 Sudoeste 0 -- -- 100
2021-01-05 22:00:00 0.7 0 Calma 4 Sudoeste 0 -- -- 100
2021-01-05 21:00:00 0.7 0 Calma 4 Sur 0 -- -- 100
2021-01-05 20:00:00 0.7 0 Calma -- -- 0 -- -- 100
2021-01-05 19:00:00 0.9 0 Calma -- -- 0 -- -- 100
2021-01-05 18:00:00 1.3 0 Calma -- -- 0 -- -- 99
2021-01-05 17:00:00 1.7 0 Calma 3 Sur 0 -- -- 97
2021-01-05 16:00:00 2 0 Calma 2 Oeste 0.6 -- -- 94
2021-01-05 15:00:00 2.4 0 Calma 10 Noroeste 0.2 -- -- 92
2021-01-05 14:00:00 4.3 0 Calma 3 Norte 0 -- -- 76
2021-01-05 13:00:00 2.4 0 Calma 4 Noroeste 0 -- -- 91
2021-01-05 12:00:00 1.2 0 Calma 6 Norte 0 -- -- 99
2021-01-05 11:00:00 0.1 0 Calma -- -- 0 -- -- 100
2021-01-05 10:00:00 -1.2 0 Calma -- -- 0 -- -- 100
2021-01-05 09:00:00 -1.8 0 Calma 4 Sudoeste 0 -- -- 100
2021-01-05 08:00:00 -2.4 0 Calma 4 Sudoeste 0 -- -- 100
2021-01-05 07:00:00 -2.4 0 Calma -- -- 0 -- -- 100
2021-01-05 06:00:00 -1.3 0 Calma -- -- 0 -- -- 100
2021-01-05 05:00:00 -1.3 0 Calma -- -- 0 -- -- 100
2021-01-05 04:00:00 -1.6 0 Calma -- -- 0 -- -- 100
2021-01-05 03:00:00 -2 0 Calma -- -- 0 -- -- 100
2021-01-05 02:00:00 -1.9 0 Calma -- -- 0 -- -- 100
2021-01-05 01:00:00 -1.9 0 Calma -- -- 0 -- -- 100
2021-01-05 00:00:00 -0.8 0 Calma -- -- 0 -- -- 100
2021-01-04 23:00:00 -0.3 0 Calma -- -- 0.2 -- -- 100
2021-01-04 22:00:00 -0.2 0 Calma -- -- 0 -- -- 100
2021-01-04 21:00:00 -0.1 0 Calma 5 Noroeste 0 -- -- 100
2021-01-04 20:00:00 0.2 0 Calma -- -- 0 -- -- 100
2021-01-04 19:00:00 0.3 0 Calma 4 Sudeste 0.4 -- -- 99
2021-01-04 18:00:00 0.7 0 Calma 8 Noroeste 0.6 -- -- 98
2021-01-04 17:00:00 1.9 0 Calma 4 Sur 0.4 -- -- 91
2021-01-04 16:00:00 1.6 0 Calma 8 Sudeste 1.2 -- -- 95
2021-01-04 15:00:00 1.5 5 Norte 12 Noroeste 3 -- -- 92
2021-01-04 14:00:00 3.1 0 Calma 3 Este 4.4 -- -- 90
2021-01-04 13:00:00 1.5 0 Calma 5 Norte 0.4 -- -- 100
2021-01-04 12:00:00 0.7 0 Calma 2 Este 0.8 -- -- 100
2021-01-04 11:00:00 0.2 0 Calma 0 Calma 0.6 -- -- 100
2021-01-04 10:00:00 0.1 0 Calma 2 Norte 0.6 -- -- 100
2021-01-04 09:00:00 -0.1 0 Calma 5 Norte 1 -- -- 100
2021-01-04 08:00:00 -0.1 0 Calma 0 Calma 1 -- -- 100
2021-01-04 07:00:00 -0.1 0 Calma 0 Calma 2.6 -- -- 100
2021-01-04 06:00:00 0 0 Calma 2 Sudoeste 0.8 -- -- 100
2021-01-04 05:00:00 0 0 Calma 5 Nordeste 2 -- -- 100
2021-01-04 04:00:00 0 2 Sur 5 Oeste 0 -- -- 100
2021-01-04 03:00:00 0.1 0 Calma -- -- 1.4 -- -- 100
2021-01-04 02:00:00 0 0 Calma -- -- 0.4 -- -- 100
2021-01-04 01:00:00 0.1 0 Calma -- -- 0.2 -- -- 100
2021-01-04 00:00:00 0.2 0 Calma 3 Sudeste 2.2 -- -- 100
2021-01-03 23:00:00 0.2 0 Calma 9 Este 0.8 -- -- 100
2021-01-03 22:00:00 0.3 3 Sur 6 Sudoeste 0.4 -- -- 100
2021-01-03 21:00:00 0.2 0 Calma 4 Nordeste 0.6 -- -- 100
2021-01-03 20:00:00 0.4 0 Calma 8 Norte 0.6 -- -- 100
2021-01-03 19:00:00 0.8 2 Sudeste 5 Sudeste 0 -- -- 100
2021-01-03 18:00:00 1.2 3 Norte 19 Noroeste 0.2 -- -- 98
2021-01-03 17:00:00 1.2 2 Sur 6 Sur 0.4 -- -- 99
2021-01-03 16:00:00 1.3 0 Calma 6 Oeste 0.4 -- -- 98
2021-01-03 15:00:00 1.5 0 Calma 0 Calma 1 -- -- 96
2021-01-03 14:00:00 2.6 0 Calma 8 Este 0.4 -- -- 93
2021-01-03 13:00:00 2.9 2 Sur 8 Oeste 0 -- -- 99
2021-01-03 12:00:00 1.7 3 Sudeste 6 Oeste 0.2 -- -- 100
2021-01-03 11:00:00 1.1 2 Sur 5 Sudeste 0 -- -- 100
2021-01-03 10:00:00 0.6 2 Este 6 Oeste 0 -- -- 100
2021-01-03 09:00:00 0.3 0 Calma -- -- 0.2 -- -- 100
2021-01-03 08:00:00 0.2 0 Calma -- -- 0.6 -- -- 100
2021-01-03 07:00:00 0.3 0 Calma -- -- 1 -- -- 100
2021-01-03 06:00:00 0.5 0 Calma -- -- 0.2 -- -- 100
2021-01-03 05:00:00 0.4 0 Calma -- -- 0 -- -- 100
2021-01-03 04:00:00 0.3 0 Calma -- -- 0 -- -- 100
2021-01-03 03:00:00 0.3 0 Calma 3 Norte 0.2 -- -- 100
2021-01-03 02:00:00 0.4 0 Calma 3 Sudeste 0 -- -- 100
2021-01-03 01:00:00 0.4 0 Calma 4 Norte 0.2 -- -- 100
2021-01-03 00:00:00 0.4 0 Calma -- -- 0 -- -- 100
2021-01-02 23:00:00 0.3 0 Calma 4 Sur 0.8 -- -- 100
2021-01-02 22:00:00 0.6 0 Calma 4 Sudoeste 0 -- -- 100
2021-01-02 21:00:00 0.7 0 Calma 6 Noroeste 0 -- -- 100
2021-01-02 20:00:00 0.8 0 Calma 0 Calma 0 -- -- 100
2021-01-02 19:00:00 1 0 Calma 4 Sur 0 -- -- 99
2021-01-02 18:00:00 1.4 0 Calma -- -- 0 -- -- 98
2021-01-02 17:00:00 2 0 Calma -- -- 0 -- -- 96
2021-01-02 16:00:00 2.2 0 Calma -- -- 0 -- -- 95
2021-01-02 15:00:00 2.1 0 Calma -- -- 0.2 -- -- 94
2021-01-02 14:00:00 2.3 0 Calma -- -- 0 -- -- 94